createdAt,value
2019-05-01T00:01:49.576Z,5.50
2019-05-01T00:06:59.212Z,5.50
2019-05-01T00:12:05.493Z,5.10
2019-05-01T00:17:12.317Z,5.10
2019-05-01T00:22:18.821Z,5.10
2019-05-01T00:27:25.379Z,5.20
2019-05-01T00:32:31.856Z,5.00
2019-05-01T00:37:38.523Z,4.80
2019-05-01T00:42:45.008Z,4.60
2019-05-01T00:47:51.244Z,4.30
2019-05-01T00:52:56.678Z,4.10
2019-05-01T00:58:16.860Z,4.10
2019-05-01T01:03:22.431Z,4.10
2019-05-01T01:08:29.267Z,4.10
2019-05-01T01:13:35.400Z,4.00
2019-05-01T01:18:40.893Z,4.00
2019-05-01T01:23:47.930Z,4.10
2019-05-01T01:28:54.525Z,4.00
2019-05-01T01:34:01.110Z,3.90
2019-05-01T01:39:07.695Z,3.90
2019-05-01T01:44:19.018Z,3.90
2019-05-01T01:49:25.995Z,3.90
2019-05-01T01:54:32.795Z,3.90
2019-05-01T01:59:39.366Z,3.90
2019-05-01T02:05:02.727Z,3.80
2019-05-01T02:10:08.948Z,3.90
2019-05-01T02:15:14.679Z,3.80
2019-05-01T02:20:21.801Z,3.60
2019-05-01T02:25:28.849Z,3.30
2019-05-01T02:30:35.403Z,3.10
2019-05-01T02:35:43.906Z,2.90
2019-05-01T02:40:55.483Z,2.80
2019-05-01T02:46:04.786Z,2.70
2019-05-01T02:51:10.587Z,2.70
2019-05-01T02:56:27.093Z,2.70
2019-05-01T03:01:46.389Z,2.70
2019-05-01T03:06:41.200Z,2.60
2019-05-01T03:11:50.991Z,2.60
2019-05-01T03:17:00.895Z,2.40
2019-05-01T03:22:14.059Z,2.40
2019-05-01T03:27:20.851Z,2.30
2019-05-01T03:32:27.748Z,2.30
2019-05-01T03:37:33.943Z,2.20
2019-05-01T03:42:40.435Z,2.10
2019-05-01T03:47:46.193Z,2.10
2019-05-01T03:52:52.742Z,2.00
2019-05-01T03:57:59.449Z,2.10
2019-05-01T04:03:28.703Z,2.10
2019-05-01T04:08:34.453Z,2.10
2019-05-01T04:13:40.373Z,2.00
2019-05-01T04:18:47.206Z,1.90
2019-05-01T04:23:54.050Z,1.90
2019-05-01T04:29:22.794Z,2.00
2019-05-01T04:34:35.988Z,2.10
2019-05-01T04:39:42.617Z,2.10
2019-05-01T04:44:48.342Z,2.20
2019-05-01T04:49:54.910Z,2.20
2019-05-01T04:55:00.959Z,2.30
2019-05-01T05:00:07.029Z,2.80
2019-05-01T05:05:12.741Z,3.10
2019-05-01T05:10:18.227Z,3.40
2019-05-01T05:15:53.190Z,3.80
2019-05-01T05:21:00.427Z,4.10
2019-05-01T05:26:05.824Z,4.50
2019-05-01T05:31:15.037Z,4.90
2019-05-01T05:36:24.115Z,5.30
2019-05-01T05:41:31.076Z,5.60
2019-05-01T05:46:37.302Z,6.00
2019-05-01T05:51:54.152Z,6.30
2019-05-01T05:57:09.413Z,6.50
2019-05-01T06:02:36.802Z,6.50
2019-05-01T06:08:05.641Z,6.50
2019-05-01T06:13:21.921Z,6.60
2019-05-01T06:18:55.301Z,6.60
2019-05-01T06:24:10.876Z,6.80
2019-05-01T06:29:17.369Z,6.80
2019-05-01T06:34:23.873Z,7.30
2019-05-01T06:39:32.735Z,7.60
2019-05-01T06:44:51.220Z,7.80
2019-05-01T06:50:07.240Z,8.00
2019-05-01T06:55:12.929Z,8.20
2019-05-01T07:00:18.968Z,8.40
2019-05-01T07:05:24.866Z,8.60
2019-05-01T07:10:43.126Z,8.80
2019-05-01T07:15:39.380Z,8.80
2019-05-01T07:20:51.435Z,8.60
2019-05-01T07:25:56.826Z,8.90
2019-05-01T07:31:05.408Z,9.10
2019-05-01T07:36:15.534Z,9.20
2019-05-01T07:41:18.871Z,9.10
2019-05-01T07:46:29.841Z,9.00
2019-05-01T07:51:37.712Z,9.40
2019-05-01T07:56:44.912Z,9.80
2019-05-01T08:02:07.787Z,9.70
2019-05-01T08:07:13.985Z,9.90
2019-05-01T08:12:24.068Z,10.10
2019-05-01T08:17:30.423Z,10.00
2019-05-01T08:22:39.080Z,10.10
2019-05-01T08:27:58.113Z,10.20
2019-05-01T08:33:32.223Z,10.50
2019-05-01T08:38:38.933Z,10.70
2019-05-01T08:43:48.892Z,11.10
2019-05-01T08:49:06.829Z,11.00
2019-05-01T08:54:11.952Z,10.80
2019-05-01T08:59:19.412Z,11.10
2019-05-01T09:04:25.310Z,11.30
2019-05-01T09:09:33.433Z,11.10
2019-05-01T09:14:39.819Z,11.00
2019-05-01T09:19:46.427Z,11.30
2019-05-01T09:24:51.786Z,11.30
2019-05-01T09:29:58.014Z,11.50
2019-05-01T09:35:15.165Z,11.70
2019-05-01T09:40:10.790Z,11.60
2019-05-01T09:45:16.969Z,12.20
2019-05-01T09:50:25.841Z,12.80
2019-05-01T09:56:03.271Z,13.20
2019-05-01T10:01:17.784Z,13.00
2019-05-01T10:06:24.129Z,13.00
2019-05-01T10:11:30.283Z,13.20
2019-05-01T10:16:35.831Z,13.60
2019-05-01T10:21:41.675Z,13.80
2019-05-01T10:26:48.647Z,14.00
2019-05-01T10:32:16.973Z,13.70
2019-05-01T10:37:23.543Z,14.10
2019-05-01T10:42:28.640Z,15.10
2019-05-01T10:47:34.080Z,15.10
2019-05-01T10:52:40.241Z,14.90
2019-05-01T10:57:46.807Z,15.00
2019-05-01T11:02:53.482Z,15.90
2019-05-01T11:07:59.934Z,16.10
2019-05-01T11:13:07.857Z,14.90
2019-05-01T11:18:13.769Z,14.60
2019-05-01T11:23:20.494Z,15.30
2019-05-01T11:28:26.263Z,15.50
2019-05-01T11:33:54.405Z,16.40
2019-05-01T11:39:19.940Z,17.60
2019-05-01T11:44:25.332Z,18.70
2019-05-01T11:49:31.764Z,19.10
2019-05-01T11:54:38.098Z,19.60
2019-05-01T11:59:44.419Z,20.30
2019-05-01T12:04:50.118Z,21.20
2019-05-01T12:09:56.242Z,22.10
2019-05-01T12:15:03.125Z,21.50
2019-05-01T12:20:08.802Z,22.10
2019-05-01T12:25:14.428Z,23.80
2019-05-01T12:30:20.391Z,23.00
2019-05-01T12:35:26.346Z,22.00
2019-05-01T12:40:32.387Z,23.00
2019-05-01T12:45:38.743Z,22.70
2019-05-01T12:50:47.674Z,23.50
2019-05-01T12:56:15.033Z,24.10
2019-05-01T13:01:21.440Z,22.90
2019-05-01T13:06:27.258Z,23.20
2019-05-01T13:11:32.726Z,23.40
2019-05-01T13:16:38.309Z,23.60
2019-05-01T13:21:43.789Z,23.60
2019-05-01T13:26:56.263Z,22.70
2019-05-01T13:32:14.721Z,23.00
2019-05-01T13:37:20.782Z,24.10
2019-05-01T13:42:27.046Z,23.80
2019-05-01T13:47:33.641Z,23.50
2019-05-01T13:52:40.314Z,24.10
2019-05-01T13:57:46.951Z,25.40
2019-05-01T14:02:53.681Z,27.60
2019-05-01T14:08:00.307Z,28.00
2019-05-01T14:13:07.017Z,28.30
2019-05-01T14:18:12.387Z,28.40
2019-05-01T14:23:26.926Z,28.40
2019-05-01T14:28:33.609Z,29.90
2019-05-01T14:33:39.573Z,27.90
2019-05-01T14:38:45.561Z,25.50
2019-05-01T14:43:51.761Z,26.50
2019-05-01T14:48:58.614Z,26.50
2019-05-01T14:54:04.191Z,25.00
2019-05-01T14:59:10.362Z,24.20
2019-05-01T15:04:16.582Z,23.70
2019-05-01T15:09:21.907Z,23.60
2019-05-01T15:14:33.510Z,23.40
2019-05-01T15:19:44.361Z,22.80
2019-05-01T15:24:51.086Z,22.80
2019-05-01T15:29:57.536Z,22.60
2019-05-01T15:35:02.907Z,23.30
2019-05-01T15:40:18.525Z,23.30
2019-05-01T15:45:24.450Z,24.20
2019-05-01T15:50:30.338Z,25.20
2019-05-01T15:55:36.789Z,24.10
2019-05-01T16:00:43.394Z,23.90
2019-05-01T16:05:50.048Z,24.50
2019-05-01T16:11:05.635Z,26.20
2019-05-01T16:16:11.975Z,26.90
2019-05-01T16:21:18.659Z,25.40
2019-05-01T16:26:25.152Z,25.70
2019-05-01T16:31:31.704Z,25.80
2019-05-01T16:36:37.279Z,25.50
2019-05-01T16:41:43.175Z,24.40
2019-05-01T16:46:48.956Z,24.80
2019-05-01T16:51:55.570Z,25.40
2019-05-01T16:57:02.248Z,25.80
2019-05-01T17:02:36.441Z,26.50
2019-05-01T17:08:07.905Z,22.80
2019-05-01T17:13:13.697Z,20.50
2019-05-01T17:18:20.495Z,19.30
2019-05-01T17:23:26.615Z,18.70
2019-05-01T17:28:33.210Z,18.40
2019-05-01T17:33:39.555Z,18.20
2019-05-01T17:38:49.627Z,17.80
2019-05-01T17:43:52.969Z,17.50
2019-05-01T17:49:04.057Z,17.20
2019-05-01T17:54:06.938Z,17.20
2019-05-01T17:59:13.635Z,17.00
2019-05-01T18:04:38.644Z,16.60
2019-05-01T18:09:45.300Z,16.50
2019-05-01T18:14:52.253Z,16.10
2019-05-01T18:19:58.536Z,15.70
2019-05-01T18:25:22.544Z,15.10
2019-05-01T18:30:34.920Z,14.70
2019-05-01T18:35:40.506Z,14.20
2019-05-01T18:41:00.568Z,13.90
2019-05-01T18:46:09.603Z,13.30
2019-05-01T18:51:16.402Z,12.80
2019-05-01T18:56:22.431Z,12.60
2019-05-01T19:01:29.544Z,12.30
2019-05-01T19:06:41.326Z,12.20
2019-05-01T19:11:43.787Z,11.80
2019-05-01T19:16:49.829Z,11.50
2019-05-01T19:21:56.223Z,11.20
2019-05-01T19:27:02.847Z,11.00
2019-05-01T19:32:10.566Z,11.20
2019-05-01T19:37:21.857Z,11.30
2019-05-01T19:42:24.829Z,11.20
2019-05-01T19:47:31.450Z,11.10
2019-05-01T19:52:39.938Z,11.00
2019-05-01T19:57:47.239Z,10.90
2019-05-01T20:02:59.150Z,10.90
2019-05-01T20:08:03.077Z,10.70
2019-05-01T20:13:12.278Z,10.60
2019-05-01T20:18:18.662Z,10.40
2019-05-01T20:23:31.186Z,10.10
2019-05-01T20:28:33.752Z,10.10
2019-05-01T20:33:44.095Z,10.10
2019-05-01T20:38:47.452Z,10.10
2019-05-01T20:43:54.234Z,10.00
2019-05-01T20:49:01.337Z,9.90
2019-05-01T20:54:08.547Z,9.70
2019-05-01T20:59:15.625Z,9.60
2019-05-01T21:04:38.866Z,9.50
2019-05-01T21:09:48.229Z,9.50
2019-05-01T21:14:55.342Z,9.50
2019-05-01T21:20:03.779Z,9.40
2019-05-01T21:25:09.298Z,9.20
2019-05-01T21:30:15.011Z,9.00
2019-05-01T21:35:20.996Z,8.70
2019-05-01T21:40:37.736Z,8.60
2019-05-01T21:45:34.922Z,8.60
2019-05-01T21:50:40.357Z,8.60
2019-05-01T21:55:46.242Z,8.40
2019-05-01T22:00:55.099Z,8.40
2019-05-01T22:06:01.351Z,8.40
2019-05-01T22:11:08.845Z,8.40
2019-05-01T22:16:18.469Z,8.30
2019-05-01T22:21:54.160Z,8.10
2019-05-01T22:27:07.530Z,8.00
2019-05-01T22:32:38.668Z,7.90
2019-05-01T22:37:45.790Z,7.70
2019-05-01T22:42:52.444Z,7.70
2019-05-01T22:47:59.059Z,7.70
2019-05-01T22:53:07.812Z,7.70
2019-05-01T22:58:12.798Z,7.50
2019-05-01T23:03:26.305Z,7.50
2019-05-01T23:08:32.939Z,7.50
2019-05-01T23:13:38.683Z,7.50
2019-05-01T23:18:47.142Z,7.30
2019-05-01T23:23:56.743Z,7.20
2019-05-01T23:29:02.243Z,7.00
2019-05-01T23:34:08.401Z,7.00
2019-05-01T23:39:15.636Z,7.00
2019-05-01T23:44:20.935Z,6.90
2019-05-01T23:49:26.258Z,6.80
2019-05-01T23:54:33.023Z,6.70
2019-05-01T23:59:38.697Z,6.40
